createdAt,value
2019-04-21T00:00:17.157Z,1.00
2019-04-21T00:00:58.125Z,1.00
2019-04-21T00:01:30.674Z,1.00
2019-04-21T00:02:05.552Z,1.00
2019-04-21T00:02:44.096Z,1.00
2019-04-21T00:03:23.626Z,1.00
2019-04-21T00:03:58.564Z,1.00
2019-04-21T00:04:40.718Z,1.00
2019-04-21T00:05:24.685Z,1.00
2019-04-21T00:06:03.240Z,1.00
2019-04-21T00:06:36.733Z,1.00
2019-04-21T00:07:13.209Z,1.00
2019-04-21T00:07:52.800Z,1.00
2019-04-21T00:08:33.302Z,1.00
2019-04-21T00:09:11.408Z,1.00
2019-04-21T00:09:40.041Z,1.00
2019-04-21T00:10:23.385Z,1.00
2019-04-21T00:11:01.350Z,1.00
2019-04-21T00:11:30.036Z,1.00
2019-04-21T00:12:01.490Z,1.00
2019-04-21T00:12:35.585Z,1.00
2019-04-21T00:13:08.048Z,1.00
2019-04-21T00:13:42.690Z,1.00
2019-04-21T00:14:19.298Z,1.00
2019-04-21T00:14:54.869Z,1.00
2019-04-21T00:15:27.687Z,1.00
2019-04-21T00:16:00.272Z,1.00
2019-04-21T00:16:40.922Z,1.00
2019-04-21T00:17:12.409Z,1.00
2019-04-21T00:17:50.825Z,1.00
2019-04-21T00:18:47.674Z,1.00
2019-04-21T00:19:36.777Z,1.00
2019-04-21T00:20:22.471Z,1.00
2019-04-21T00:20:50.170Z,1.00
2019-04-21T00:21:32.355Z,1.00
2019-04-21T00:22:08.631Z,1.00
2019-04-21T00:22:49.062Z,1.00
2019-04-21T00:23:29.914Z,1.00
2019-04-21T00:24:22.739Z,1.00
2019-04-21T00:24:58.573Z,1.00
2019-04-21T00:25:32.193Z,1.00
2019-04-21T00:26:05.176Z,6.80
2019-04-21T00:26:48.117Z,1.00
2019-04-21T00:27:24.467Z,1.00
2019-04-21T00:28:00.371Z,1.00
2019-04-21T00:28:42.822Z,14.50
2019-04-21T00:29:16.433Z,39.10
2019-04-21T00:29:50.378Z,64.70
2019-04-21T00:30:33.025Z,86.30
2019-04-21T00:31:01.613Z,1.00
2019-04-21T00:31:33.904Z,1.00
2019-04-21T00:32:10.202Z,1.00
2019-04-21T00:32:42.902Z,1.00
2019-04-21T00:33:13.881Z,1.00
2019-04-21T00:33:45.037Z,1.00
2019-04-21T00:34:19.451Z,1.00
2019-04-21T00:35:00.910Z,1.00
2019-04-21T00:35:35.001Z,1.00
2019-04-21T00:36:13.184Z,1.00
2019-04-21T00:36:53.483Z,1.00
2019-04-21T00:37:26.518Z,1.00
2019-04-21T00:38:17.075Z,1.00
2019-04-21T00:39:02.467Z,1.00
2019-04-21T00:39:37.062Z,1.00
2019-04-21T00:40:06.566Z,5.50
2019-04-21T00:40:41.428Z,27.10
2019-04-21T00:41:19.611Z,33.80
2019-04-21T00:41:53.683Z,99.90
2019-04-21T00:42:30.207Z,99.90
2019-04-21T00:43:04.642Z,99.90
2019-04-21T00:43:38.741Z,60.00
2019-04-21T00:44:12.896Z,83.40
2019-04-21T00:44:51.957Z,99.90
2019-04-21T00:45:27.490Z,99.90
2019-04-21T00:45:59.962Z,99.90
2019-04-21T00:46:40.336Z,99.90
2019-04-21T00:47:25.098Z,54.20
2019-04-21T00:48:01.852Z,15.00
2019-04-21T00:48:37.856Z,1.00
2019-04-21T00:49:06.023Z,1.00
2019-04-21T00:49:45.379Z,1.00
2019-04-21T00:50:25.610Z,1.00
2019-04-21T00:51:16.316Z,1.00
2019-04-21T00:51:49.358Z,1.00
2019-04-21T00:52:39.922Z,61.70
2019-04-21T00:53:10.471Z,99.90
2019-04-21T00:53:58.301Z,91.20
2019-04-21T00:54:37.410Z,1.00
2019-04-21T00:55:20.204Z,1.00
2019-04-21T00:55:53.574Z,1.00
2019-04-21T00:56:27.878Z,1.00
2019-04-21T00:57:10.571Z,1.00
2019-04-21T00:57:44.914Z,1.00
2019-04-21T00:58:26.929Z,71.60
2019-04-21T00:58:53.182Z,97.80
2019-04-21T00:59:37.072Z,91.80
2019-04-21T01:00:11.863Z,99.90
2019-04-21T01:00:46.249Z,99.90
2019-04-21T01:01:19.841Z,99.90
2019-04-21T01:01:55.496Z,99.90
2019-04-21T01:02:40.217Z,99.90
2019-04-21T01:03:09.645Z,99.90
2019-04-21T01:03:55.057Z,99.90
2019-04-21T01:04:26.380Z,99.90
2019-04-21T01:05:04.828Z,99.90
2019-04-21T01:05:43.918Z,99.90
2019-04-21T01:06:16.439Z,99.90
2019-04-21T01:06:48.393Z,28.20
2019-04-21T01:07:22.004Z,1.00
2019-04-21T01:07:59.444Z,1.00
2019-04-21T01:08:35.729Z,1.00
2019-04-21T01:09:07.997Z,1.00
2019-04-21T01:09:42.667Z,1.00
2019-04-21T01:10:15.697Z,1.00
2019-04-21T01:10:51.438Z,1.00
2019-04-21T01:11:35.081Z,57.20
2019-04-21T01:12:15.562Z,99.90
2019-04-21T01:12:52.689Z,99.90
2019-04-21T01:13:27.286Z,99.10
2019-04-21T01:14:07.064Z,23.50
2019-04-21T01:14:41.522Z,1.00
2019-04-21T01:15:18.466Z,1.00
2019-04-21T01:15:51.471Z,1.00
2019-04-21T01:16:29.946Z,1.00
2019-04-21T01:17:06.811Z,1.00
2019-04-21T01:17:35.770Z,1.00
2019-04-21T01:18:09.115Z,1.00
2019-04-21T01:18:51.866Z,1.00
2019-04-21T01:19:23.777Z,1.00
2019-04-21T01:19:57.459Z,1.00
2019-04-21T01:20:17.910Z,1.00
2019-04-21T01:20:52.183Z,1.00
2019-04-21T01:21:26.648Z,1.00
2019-04-21T01:22:01.733Z,24.50
2019-04-21T01:22:36.209Z,94.30
2019-04-21T01:23:10.670Z,15.40
2019-04-21T01:23:46.402Z,1.00
2019-04-21T01:24:28.831Z,1.00
2019-04-21T01:25:09.043Z,1.00
2019-04-21T01:25:43.211Z,1.00
2019-04-21T01:26:23.404Z,19.10
2019-04-21T01:26:56.773Z,99.90
2019-04-21T01:27:47.879Z,99.90
2019-04-21T01:28:19.930Z,97.50
2019-04-21T01:28:51.143Z,99.90
2019-04-21T01:29:27.995Z,99.30
2019-04-21T01:30:14.219Z,99.90
2019-04-21T01:30:44.914Z,99.90
2019-04-21T01:31:17.101Z,99.90
2019-04-21T01:31:57.320Z,99.90
2019-04-21T01:32:35.723Z,99.90
2019-04-21T01:33:07.628Z,99.90
2019-04-21T01:33:46.106Z,99.90
2019-04-21T01:34:20.636Z,99.90
2019-04-21T01:35:01.184Z,99.90
2019-04-21T01:35:34.290Z,99.90
2019-04-21T01:36:11.009Z,98.00
2019-04-21T01:36:45.829Z,99.90
2019-04-21T01:37:21.042Z,99.90
2019-04-21T01:38:06.738Z,99.90
2019-04-21T01:39:15.001Z,75.90
2019-04-21T01:39:48.180Z,99.90
2019-04-21T01:40:22.940Z,93.90
2019-04-21T01:41:02.447Z,1.00
2019-04-21T01:41:41.336Z,1.00
2019-04-21T01:42:09.489Z,1.00
2019-04-21T01:42:45.825Z,1.00
2019-04-21T01:43:24.954Z,1.00
2019-04-21T01:43:55.578Z,1.00
2019-04-21T01:44:38.756Z,34.00
2019-04-21T01:45:09.454Z,99.90
2019-04-21T01:45:45.834Z,99.90
2019-04-21T01:46:22.521Z,99.90
2019-04-21T01:46:51.838Z,99.90
2019-04-21T01:47:31.427Z,99.90
2019-04-21T01:48:06.515Z,99.90
2019-04-21T01:48:41.841Z,99.90
2019-04-21T01:49:13.077Z,99.90
2019-04-21T01:49:50.064Z,25.70
2019-04-21T01:50:47.158Z,1.00
2019-04-21T01:51:23.513Z,1.00
2019-04-21T01:52:17.887Z,1.00
2019-04-21T01:52:44.229Z,1.00
2019-04-21T01:53:24.604Z,99.90
2019-04-21T01:54:03.492Z,99.90
2019-04-21T01:55:01.889Z,99.10
2019-04-21T01:55:54.232Z,1.00
2019-04-21T01:56:38.928Z,1.00
2019-04-21T01:57:17.705Z,1.00
2019-04-21T01:57:57.602Z,1.00
2019-04-21T01:58:29.159Z,1.00
2019-04-21T01:59:03.507Z,1.00
2019-04-21T01:59:42.581Z,1.00
2019-04-21T02:00:39.009Z,1.00
2019-04-21T02:01:15.577Z,36.70
2019-04-21T02:01:55.410Z,99.90
2019-04-21T02:02:29.334Z,99.90
2019-04-21T02:03:14.295Z,99.90
2019-04-21T02:03:52.934Z,99.90
2019-04-21T02:04:24.094Z,99.90
2019-04-21T02:04:57.981Z,99.90
2019-04-21T02:05:39.260Z,99.90
2019-04-21T02:06:15.953Z,99.90
2019-04-21T02:06:44.613Z,99.00
2019-04-21T02:07:20.846Z,85.80
2019-04-21T02:07:54.987Z,98.50
2019-04-21T02:08:31.108Z,99.90
2019-04-21T02:09:06.754Z,84.10
2019-04-21T02:09:43.232Z,97.00
2019-04-21T02:10:32.139Z,99.90
2019-04-21T02:11:03.706Z,99.90
2019-04-21T02:11:35.483Z,99.90
2019-04-21T02:12:10.553Z,99.90
2019-04-21T02:12:48.771Z,99.90
2019-04-21T02:13:18.827Z,99.90
2019-04-21T02:14:05.945Z,66.80
2019-04-21T02:14:41.035Z,40.30
2019-04-21T02:15:11.087Z,59.30
2019-04-21T02:15:48.872Z,14.30
2019-04-21T02:16:23.334Z,1.00
2019-04-21T02:16:59.604Z,1.00
2019-04-21T02:17:28.110Z,1.00
2019-04-21T02:18:10.555Z,1.00
2019-04-21T02:18:46.449Z,1.00
2019-04-21T02:19:16.692Z,1.00
2019-04-21T02:19:50.355Z,1.00
2019-04-21T02:20:22.980Z,45.60
2019-04-21T02:20:57.130Z,99.90
2019-04-21T02:21:39.258Z,99.90
2019-04-21T02:22:26.460Z,99.90
2019-04-21T02:23:10.006Z,99.90
2019-04-21T02:23:39.848Z,99.90
2019-04-21T02:24:14.837Z,60.60
2019-04-21T02:24:55.238Z,69.90
2019-04-21T02:25:23.124Z,84.80
2019-04-21T02:25:57.339Z,86.80
2019-04-21T02:26:42.898Z,92.00
2019-04-21T02:27:12.782Z,99.90
2019-04-21T02:27:50.233Z,99.90
2019-04-21T02:28:36.775Z,99.90
2019-04-21T02:29:11.764Z,99.90
2019-04-21T02:29:41.093Z,99.90
2019-04-21T02:30:29.702Z,99.90
2019-04-21T02:31:05.957Z,99.90
2019-04-21T02:31:41.819Z,99.90
2019-04-21T02:32:10.655Z,99.90
2019-04-21T02:32:48.376Z,99.90
2019-04-21T02:33:58.281Z,99.90
2019-04-21T02:36:33.174Z,22.20
2019-04-21T02:38:32.137Z,18.30
2019-04-21T02:39:32.742Z,82.50
2019-04-21T02:40:12.869Z,57.20
2019-04-21T02:40:39.019Z,31.50
2019-04-21T02:41:06.097Z,34.60
2019-04-21T02:41:54.676Z,91.10
2019-04-21T02:42:27.761Z,99.90
2019-04-21T02:43:36.473Z,99.90
2019-04-21T02:45:33.820Z,99.90
2019-04-21T02:46:04.413Z,99.90
2019-04-21T02:46:40.120Z,99.90
2019-04-21T02:47:16.670Z,99.90
2019-04-21T02:47:59.601Z,99.90
2019-04-21T02:48:32.927Z,99.90
2019-04-21T02:49:04.032Z,99.90
2019-04-21T02:49:45.396Z,99.90
2019-04-21T02:50:17.596Z,99.90
2019-04-21T02:50:45.130Z,71.10
2019-04-21T02:51:28.174Z,27.60
2019-04-21T02:52:13.783Z,3.30
2019-04-21T02:52:44.052Z,1.00
2019-04-21T02:53:18.375Z,1.00
2019-04-21T02:54:28.902Z,11.40
2019-04-21T02:55:36.347Z,98.30
2019-04-21T02:56:18.480Z,99.90
2019-04-21T02:56:55.068Z,99.90
2019-04-21T02:57:22.633Z,99.90
2019-04-21T02:58:09.806Z,99.90
2019-04-21T02:59:02.954Z,99.90
2019-04-21T02:59:42.421Z,99.90
2019-04-21T03:00:10.032Z,99.90
2019-04-21T03:01:07.002Z,99.90
2019-04-21T03:02:04.537Z,99.90
2019-04-21T03:02:42.953Z,99.10
2019-04-21T03:03:25.697Z,99.90
2019-04-21T03:04:10.417Z,99.90
2019-04-21T03:04:53.105Z,99.90
2019-04-21T03:05:50.779Z,94.50
2019-04-21T03:06:26.391Z,44.30
2019-04-21T03:07:50.258Z,56.90
2019-04-21T03:08:27.925Z,95.90
2019-04-21T03:10:26.714Z,99.90
2019-04-21T03:10:49.114Z,97.40
2019-04-21T03:11:13.542Z,88.00
2019-04-21T03:12:05.427Z,69.30
2019-04-21T03:12:36.144Z,93.10
2019-04-21T03:13:17.465Z,99.90
2019-04-21T03:14:33.303Z,99.90
2019-04-21T03:15:08.043Z,99.90
2019-04-21T03:16:04.879Z,99.90
2019-04-21T03:16:17.094Z,99.90
2019-04-21T03:16:43.031Z,99.90
2019-04-21T03:17:26.571Z,99.90
2019-04-21T03:17:56.909Z,99.90
2019-04-21T03:18:39.923Z,99.90
2019-04-21T03:19:05.019Z,99.90
2019-04-21T03:21:00.946Z,99.90
2019-04-21T03:21:32.441Z,99.90
2019-04-21T03:22:14.512Z,99.90
2019-04-21T03:22:44.313Z,99.90
2019-04-21T03:24:40.275Z,99.90
2019-04-21T03:25:30.393Z,99.90
2019-04-21T03:26:28.245Z,64.70
2019-04-21T03:27:12.629Z,29.30
2019-04-21T03:27:41.221Z,1.00
2019-04-21T03:28:14.069Z,7.80
2019-04-21T03:28:43.916Z,37.00
2019-04-21T03:29:28.864Z,99.90
2019-04-21T03:31:01.592Z,99.90
2019-04-21T03:32:55.368Z,99.90
2019-04-21T03:33:23.525Z,99.90
2019-04-21T03:36:49.151Z,99.90
2019-04-21T03:37:11.284Z,99.90
2019-04-21T03:37:39.629Z,97.50
2019-04-21T03:38:20.792Z,91.00
2019-04-21T03:38:55.404Z,99.90
2019-04-21T03:39:31.252Z,99.90
2019-04-21T03:40:57.387Z,99.90
2019-04-21T03:41:26.752Z,99.90
2019-04-21T03:41:59.754Z,99.90
2019-04-21T03:42:36.804Z,91.70
2019-04-21T03:43:04.386Z,74.60
2019-04-21T03:43:44.206Z,59.20
2019-04-21T03:44:24.696Z,89.60
2019-04-21T03:44:55.429Z,99.90
2019-04-21T03:45:39.223Z,99.90
2019-04-21T03:46:27.402Z,79.30
2019-04-21T03:47:01.564Z,18.70
2019-04-21T03:47:22.964Z,16.00
2019-04-21T03:47:53.240Z,7.40
2019-04-21T03:49:12.475Z,51.10
2019-04-21T03:49:47.547Z,79.10
2019-04-21T03:51:01.523Z,1.00
2019-04-21T03:52:15.279Z,90.40
2019-04-21T03:52:53.421Z,99.90
2019-04-21T03:53:53.934Z,99.90
2019-04-21T03:54:37.136Z,99.90
2019-04-21T03:56:01.339Z,99.90
2019-04-21T03:57:21.651Z,99.90
2019-04-21T03:59:49.201Z,41.50
2019-04-21T04:00:35.269Z,56.80
2019-04-21T04:01:11.408Z,43.30
2019-04-21T04:02:14.824Z,68.30
2019-04-21T04:03:27.427Z,94.50
2019-04-21T04:05:23.389Z,99.90
2019-04-21T04:06:22.263Z,99.90
2019-04-21T04:08:22.617Z,99.90
2019-04-21T04:09:09.670Z,99.90
2019-04-21T04:10:28.517Z,99.90
2019-04-21T04:11:12.417Z,99.90
2019-04-21T04:12:05.206Z,99.90
2019-04-21T04:13:28.496Z,99.90
2019-04-21T04:14:03.498Z,99.90
2019-04-21T04:14:40.171Z,99.90
2019-04-21T04:15:18.640Z,99.90
2019-04-21T04:15:47.067Z,99.90
2019-04-21T04:16:28.774Z,99.90
2019-04-21T04:17:08.798Z,99.90
2019-04-21T04:17:36.051Z,99.90
2019-04-21T04:18:23.400Z,99.90
2019-04-21T04:19:30.928Z,99.90
2019-04-21T04:19:58.344Z,99.90
2019-04-21T04:20:39.978Z,99.90
2019-04-21T04:22:31.409Z,99.90
2019-04-21T04:23:42.124Z,99.90
2019-04-21T04:24:16.897Z,99.90
2019-04-21T04:24:51.703Z,99.90
2019-04-21T04:25:35.397Z,99.90
2019-04-21T04:25:57.684Z,99.90
2019-04-21T04:27:22.598Z,99.90
2019-04-21T04:27:59.456Z,99.90
2019-04-21T04:28:28.218Z,99.90
2019-04-21T04:29:03.441Z,99.90
2019-04-21T04:29:33.615Z,99.90
2019-04-21T04:30:12.424Z,99.90
2019-04-21T04:30:47.483Z,99.90
2019-04-21T04:31:31.937Z,99.90
2019-04-21T04:32:18.705Z,99.90
2019-04-21T04:32:34.850Z,99.90
2019-04-21T04:33:12.354Z,99.90
2019-04-21T04:34:09.881Z,99.90
2019-04-21T04:35:03.287Z,99.90
2019-04-21T04:35:46.134Z,99.90
2019-04-21T04:36:31.134Z,99.90
2019-04-21T04:36:59.330Z,99.90
2019-04-21T04:37:34.750Z,99.90
2019-04-21T04:38:00.842Z,99.90
2019-04-21T04:38:39.248Z,99.90
2019-04-21T04:41:33.436Z,99.90
2019-04-21T04:42:45.750Z,99.90
2019-04-21T04:43:28.542Z,99.90
2019-04-21T04:44:06.986Z,99.90
2019-04-21T04:45:17.743Z,99.90
2019-04-21T04:46:18.266Z,99.90
2019-04-21T04:47:05.849Z,99.90
2019-04-21T04:48:41.949Z,99.90
2019-04-21T04:49:40.141Z,99.90
2019-04-21T04:49:51.667Z,99.90
2019-04-21T04:50:45.584Z,99.90
2019-04-21T04:51:56.287Z,99.90
2019-04-21T04:53:01.926Z,99.90
2019-04-21T04:53:42.682Z,99.90
2019-04-21T04:54:17.095Z,99.90
2019-04-21T04:55:19.024Z,99.90
2019-04-21T04:55:54.736Z,99.90
2019-04-21T04:56:31.138Z,92.20
2019-04-21T04:57:14.154Z,46.10
2019-04-21T04:57:57.730Z,25.20
2019-04-21T04:58:19.057Z,26.10
2019-04-21T05:00:18.210Z,1.00
2019-04-21T05:00:43.117Z,1.00
2019-04-21T05:02:00.340Z,1.00
2019-04-21T05:02:33.646Z,1.00
2019-04-21T05:03:01.011Z,1.00
2019-04-21T05:04:25.386Z,1.00
2019-04-21T05:05:17.219Z,1.00
2019-04-21T05:05:49.021Z,1.00
2019-04-21T05:06:46.204Z,1.00
2019-04-21T05:07:42.893Z,1.00
2019-04-21T05:08:21.281Z,1.00
2019-04-21T05:09:05.823Z,1.00
2019-04-21T05:09:47.015Z,1.00
2019-04-21T05:10:07.553Z,1.00
2019-04-21T05:10:57.435Z,1.00
2019-04-21T05:11:50.503Z,1.00
2019-04-21T05:12:30.941Z,1.00
2019-04-21T05:13:14.342Z,1.00
2019-04-21T05:13:45.812Z,99.90
2019-04-21T05:14:26.551Z,99.90
2019-04-21T05:15:24.010Z,1.00
2019-04-21T05:16:16.308Z,1.00
2019-04-21T05:16:49.831Z,99.90
2019-04-21T05:17:57.653Z,99.90
2019-04-21T05:17:57.697Z,1.00
2019-04-21T05:18:43.572Z,1.00
2019-04-21T05:19:22.634Z,1.00
2019-04-21T05:19:54.007Z,32.60
2019-04-21T05:20:15.869Z,1.00
2019-04-21T05:21:04.235Z,1.00
2019-04-21T05:22:14.249Z,1.00
2019-04-21T05:22:44.311Z,1.00
2019-04-21T05:23:29.149Z,1.00
2019-04-21T05:24:11.908Z,1.00
2019-04-21T05:24:50.712Z,99.90
2019-04-21T05:25:23.698Z,99.90
2019-04-21T05:25:58.677Z,1.00
2019-04-21T05:26:39.236Z,1.00
2019-04-21T05:27:29.386Z,1.00
2019-04-21T05:28:09.049Z,1.00
2019-04-21T05:28:44.800Z,99.90
2019-04-21T05:29:30.913Z,92.10
2019-04-21T05:30:23.193Z,1.00
2019-04-21T05:31:06.569Z,99.90
2019-04-21T05:31:49.698Z,99.90
2019-04-21T05:32:36.235Z,99.90
2019-04-21T05:33:33.230Z,99.90
2019-04-21T05:34:14.519Z,99.90
2019-04-21T05:34:50.705Z,84.90
2019-04-21T05:35:45.061Z,99.90
2019-04-21T05:36:29.559Z,43.40
2019-04-21T05:37:27.219Z,1.00
2019-04-21T05:38:06.032Z,1.00
2019-04-21T05:38:58.439Z,1.00
2019-04-21T05:39:40.860Z,1.00
2019-04-21T05:40:24.828Z,1.00
2019-04-21T05:40:57.611Z,1.00
2019-04-21T05:41:33.577Z,1.00
2019-04-21T05:42:08.149Z,1.00
2019-04-21T05:42:49.603Z,99.90
2019-04-21T05:43:28.381Z,99.90
2019-04-21T05:44:06.823Z,99.90
2019-04-21T05:44:54.636Z,99.90
2019-04-21T05:45:18.805Z,99.90
2019-04-21T05:46:34.381Z,99.90
2019-04-21T05:47:17.216Z,99.90
2019-04-21T05:47:57.901Z,99.90
2019-04-21T05:48:36.428Z,99.90
2019-04-21T05:49:09.344Z,99.90
2019-04-21T05:49:55.736Z,99.90
2019-04-21T05:50:26.587Z,99.90
2019-04-21T05:51:08.021Z,99.90
2019-04-21T05:52:01.537Z,99.90
2019-04-21T05:52:53.634Z,99.90
2019-04-21T05:53:53.556Z,99.90
2019-04-21T05:54:20.379Z,99.90
2019-04-21T05:54:50.250Z,99.90
2019-04-21T05:55:29.402Z,99.90
2019-04-21T05:56:03.575Z,96.40
2019-04-21T05:56:35.140Z,93.60
2019-04-21T05:57:11.569Z,89.90
2019-04-21T05:57:47.889Z,93.20
2019-04-21T05:58:30.212Z,56.10
2019-04-21T05:58:55.884Z,43.60
2019-04-21T05:59:40.364Z,47.00
2019-04-21T06:00:20.915Z,31.80
2019-04-21T06:01:37.796Z,25.70
2019-04-21T06:02:18.559Z,16.20
2019-04-21T06:02:50.978Z,43.30
2019-04-21T06:03:23.922Z,6.90
2019-04-21T06:04:03.665Z,5.80
2019-04-21T06:04:48.119Z,18.00
2019-04-21T06:05:25.657Z,1.00
2019-04-21T06:06:00.258Z,1.00
2019-04-21T06:06:26.157Z,1.00
2019-04-21T06:07:06.154Z,1.00
2019-04-21T06:07:33.394Z,1.00
2019-04-21T06:08:13.222Z,1.00
2019-04-21T06:08:47.821Z,1.00
2019-04-21T06:09:27.049Z,1.00
2019-04-21T06:10:22.511Z,1.00
2019-04-21T06:10:49.508Z,1.00
2019-04-21T06:11:19.228Z,1.00
2019-04-21T06:11:59.503Z,1.00
2019-04-21T06:12:37.050Z,1.00
2019-04-21T06:13:12.913Z,1.00
2019-04-21T06:13:51.907Z,1.00
2019-04-21T06:14:25.677Z,1.00
2019-04-21T06:14:54.546Z,1.00
2019-04-21T06:15:38.347Z,1.00
2019-04-21T06:16:08.934Z,1.00
2019-04-21T06:16:47.982Z,1.00
2019-04-21T06:17:25.261Z,1.00
2019-04-21T06:18:02.667Z,1.00
2019-04-21T06:19:05.104Z,1.00
2019-04-21T06:20:21.089Z,1.00
2019-04-21T06:21:01.359Z,1.00
2019-04-21T06:21:33.177Z,1.00
2019-04-21T06:22:03.508Z,1.00
2019-04-21T06:22:49.032Z,1.00
2019-04-21T06:23:20.981Z,1.00
2019-04-21T06:24:11.285Z,1.00
2019-04-21T06:24:38.749Z,1.00
2019-04-21T06:25:36.032Z,1.00
2019-04-21T06:26:44.928Z,1.00
2019-04-21T06:27:32.741Z,1.00
2019-04-21T06:28:04.630Z,1.00
2019-04-21T06:28:48.597Z,1.00
2019-04-21T06:29:15.431Z,1.00
2019-04-21T06:29:55.900Z,1.00
2019-04-21T06:30:37.326Z,1.00
2019-04-21T06:31:17.989Z,1.00
2019-04-21T06:32:16.741Z,1.00
2019-04-21T06:32:36.095Z,1.00
2019-04-21T06:32:52.179Z,1.00
2019-04-21T06:33:36.069Z,1.00
2019-04-21T06:34:08.211Z,1.00
2019-04-21T06:35:09.557Z,1.00
2019-04-21T06:36:10.199Z,1.00
2019-04-21T06:36:39.014Z,1.00
2019-04-21T06:38:04.694Z,1.00
2019-04-21T06:38:53.856Z,1.00
2019-04-21T06:39:22.646Z,1.00
2019-04-21T06:40:07.727Z,1.00
2019-04-21T06:41:07.477Z,1.00
2019-04-21T06:41:43.182Z,1.00
2019-04-21T06:42:16.507Z,1.00
2019-04-21T06:43:04.398Z,1.00
2019-04-21T06:43:38.118Z,1.00
2019-04-21T06:44:48.871Z,1.00
2019-04-21T06:45:25.619Z,1.00
2019-04-21T06:45:53.914Z,1.00
2019-04-21T06:47:06.340Z,1.00
2019-04-21T06:47:51.265Z,1.00
2019-04-21T06:48:24.534Z,1.00
2019-04-21T06:49:01.300Z,1.00
2019-04-21T06:49:30.330Z,1.00
2019-04-21T06:50:07.571Z,1.00
2019-04-21T06:50:46.706Z,1.00
2019-04-21T06:51:22.561Z,1.00
2019-04-21T06:51:57.605Z,1.00
2019-04-21T06:52:47.694Z,1.00
2019-04-21T06:53:06.003Z,1.00
2019-04-21T06:53:52.434Z,1.00
2019-04-21T06:54:23.847Z,1.00
2019-04-21T06:54:55.858Z,1.00
2019-04-21T06:55:32.097Z,1.00
2019-04-21T06:56:15.639Z,1.00
2019-04-21T06:56:47.979Z,1.00
2019-04-21T06:57:21.801Z,1.00
2019-04-21T06:58:00.654Z,1.00
2019-04-21T06:58:32.093Z,1.00
2019-04-21T06:59:06.354Z,1.00
2019-04-21T06:59:39.067Z,1.00
2019-04-21T07:00:21.080Z,1.00
2019-04-21T07:00:56.214Z,1.00
2019-04-21T07:01:36.337Z,1.00
2019-04-21T07:02:26.430Z,1.00
2019-04-21T07:03:08.361Z,1.00
2019-04-21T07:04:13.199Z,1.00
2019-04-21T07:04:59.066Z,1.00
2019-04-21T07:05:17.120Z,1.00
2019-04-21T07:05:57.602Z,1.00
2019-04-21T07:06:32.492Z,1.00
2019-04-21T07:07:19.024Z,1.00
2019-04-21T07:07:51.822Z,1.00
2019-04-21T07:09:10.318Z,1.00
2019-04-21T07:09:58.500Z,1.00
2019-04-21T07:10:10.476Z,1.00
2019-04-21T07:10:46.315Z,1.00
2019-04-21T07:11:21.115Z,1.00
2019-04-21T07:11:54.962Z,1.00
2019-04-21T07:12:36.525Z,1.00
2019-04-21T07:13:09.242Z,1.00
2019-04-21T07:13:50.990Z,1.00
2019-04-21T07:14:30.092Z,1.00
2019-04-21T07:15:06.597Z,1.00
2019-04-21T07:15:39.028Z,1.00
2019-04-21T07:16:18.727Z,1.00
2019-04-21T07:16:57.833Z,1.00
2019-04-21T07:17:29.002Z,1.00
2019-04-21T07:18:04.432Z,1.00
2019-04-21T07:18:41.607Z,1.00
2019-04-21T07:19:55.364Z,1.00
2019-04-21T07:20:25.734Z,1.00
2019-04-21T07:21:06.050Z,1.00
2019-04-21T07:21:41.323Z,1.00
2019-04-21T07:22:21.176Z,1.00
2019-04-21T07:23:00.093Z,1.00
2019-04-21T07:23:31.621Z,1.00
2019-04-21T07:24:14.776Z,1.00
2019-04-21T07:24:44.499Z,1.00
2019-04-21T07:25:24.821Z,1.00
2019-04-21T07:26:00.383Z,1.00
2019-04-21T07:26:32.898Z,1.00
2019-04-21T07:27:09.535Z,1.00
2019-04-21T07:27:49.059Z,1.00
2019-04-21T07:28:28.492Z,1.00
2019-04-21T07:29:01.821Z,1.00
2019-04-21T07:29:41.335Z,1.00
2019-04-21T07:30:17.668Z,1.00
2019-04-21T07:30:54.636Z,1.00
2019-04-21T07:31:29.144Z,1.00
2019-04-21T07:32:36.352Z,1.00
2019-04-21T07:33:37.573Z,1.00
2019-04-21T07:34:28.758Z,1.00
2019-04-21T07:35:03.928Z,1.00
2019-04-21T07:35:40.934Z,1.00
2019-04-21T07:36:28.918Z,1.00
2019-04-21T07:37:30.530Z,1.00
2019-04-21T07:38:04.304Z,1.00
2019-04-21T07:38:41.274Z,1.00
2019-04-21T07:39:10.316Z,1.00
2019-04-21T07:39:53.165Z,1.00
2019-04-21T07:40:24.806Z,1.00
2019-04-21T07:40:59.688Z,1.00
2019-04-21T07:41:38.594Z,1.00
2019-04-21T07:42:13.400Z,1.00
2019-04-21T07:42:47.845Z,1.00
2019-04-21T07:43:25.937Z,1.00
2019-04-21T07:43:55.949Z,1.00
2019-04-21T07:44:34.984Z,1.00
2019-04-21T07:45:13.239Z,1.00
2019-04-21T07:45:44.668Z,1.00
2019-04-21T07:46:19.706Z,1.00
2019-04-21T07:46:57.363Z,1.00
2019-04-21T07:47:48.047Z,1.00
2019-04-21T07:48:24.949Z,1.00
2019-04-21T07:49:01.786Z,1.00
2019-04-21T07:50:00.636Z,1.00
2019-04-21T07:50:51.441Z,1.00
2019-04-21T07:51:52.169Z,1.00
2019-04-21T07:52:29.731Z,1.00
2019-04-21T07:53:19.566Z,1.00
2019-04-21T07:53:56.575Z,1.00
2019-04-21T07:54:32.015Z,1.00
2019-04-21T07:55:12.729Z,1.00
2019-04-21T07:55:32.637Z,1.00
2019-04-21T07:55:59.480Z,1.00
2019-04-21T07:56:35.011Z,1.00
2019-04-21T07:57:18.738Z,1.00
2019-04-21T07:58:02.863Z,1.00
2019-04-21T07:58:40.457Z,1.00
2019-04-21T07:59:13.607Z,1.00
2019-04-21T08:00:02.741Z,1.00
2019-04-21T08:00:29.378Z,1.00
2019-04-21T08:01:18.443Z,1.00
2019-04-21T08:01:37.329Z,1.00
2019-04-21T08:02:08.847Z,1.00
2019-04-21T08:02:49.596Z,1.00
2019-04-21T08:03:28.261Z,1.00
2019-04-21T08:04:33.226Z,1.00
2019-04-21T08:05:24.861Z,1.00
2019-04-21T08:06:02.343Z,1.00
2019-04-21T08:06:43.714Z,1.00
2019-04-21T08:07:14.919Z,1.00
2019-04-21T08:07:59.651Z,1.00
2019-04-21T08:08:28.150Z,1.00
2019-04-21T08:09:01.074Z,1.00
2019-04-21T08:09:42.651Z,1.00
2019-04-21T08:10:18.253Z,1.00
2019-04-21T08:10:50.652Z,1.00
2019-04-21T08:11:25.469Z,1.00
2019-04-21T08:12:00.359Z,1.00
2019-04-21T08:12:36.351Z,1.00
2019-04-21T08:13:22.015Z,1.00
2019-04-21T08:13:55.083Z,1.00
2019-04-21T08:14:28.345Z,1.00
2019-04-21T08:15:13.888Z,1.00
2019-04-21T08:15:40.045Z,1.00
2019-04-21T08:16:17.234Z,1.00
2019-04-21T08:17:12.664Z,1.00
2019-04-21T08:17:30.482Z,1.00
2019-04-21T08:18:07.517Z,1.00
2019-04-21T08:18:39.503Z,1.00
2019-04-21T08:19:18.997Z,1.00
2019-04-21T08:19:48.712Z,1.00
2019-04-21T08:20:28.917Z,1.00
2019-04-21T08:21:05.829Z,1.00
2019-04-21T08:21:43.239Z,1.00
2019-04-21T08:22:19.617Z,1.00
2019-04-21T08:22:52.798Z,1.00
2019-04-21T08:23:31.499Z,1.00
2019-04-21T08:24:02.791Z,1.00
2019-04-21T08:24:42.390Z,1.00
2019-04-21T08:25:16.475Z,1.00
2019-04-21T08:25:58.918Z,1.00
2019-04-21T08:26:34.532Z,1.00
2019-04-21T08:27:16.014Z,1.00
2019-04-21T08:28:13.888Z,1.00
2019-04-21T08:28:56.398Z,1.00
2019-04-21T08:29:35.868Z,1.00
2019-04-21T08:30:07.463Z,1.00
2019-04-21T08:30:54.198Z,1.00
2019-04-21T08:31:25.900Z,1.00
2019-04-21T08:32:08.211Z,1.00
2019-04-21T08:32:36.228Z,1.00
2019-04-21T08:33:24.896Z,1.00
2019-04-21T08:33:50.330Z,1.00
2019-04-21T08:34:24.181Z,1.00
2019-04-21T08:35:14.732Z,1.00
2019-04-21T08:36:19.046Z,1.00
2019-04-21T08:36:57.242Z,1.00
2019-04-21T08:37:31.406Z,1.00
2019-04-21T08:38:08.486Z,1.00
2019-04-21T08:38:48.400Z,1.00
2019-04-21T08:39:24.100Z,1.00
2019-04-21T08:40:06.424Z,1.00
2019-04-21T08:40:36.823Z,1.00
2019-04-21T08:41:08.198Z,1.00
2019-04-21T08:41:46.450Z,1.00
2019-04-21T08:42:23.167Z,1.00
2019-04-21T08:42:55.103Z,1.00
2019-04-21T08:43:40.883Z,1.00
2019-04-21T08:44:17.804Z,1.00
2019-04-21T08:44:47.902Z,1.00
2019-04-21T08:45:25.819Z,1.00
2019-04-21T08:46:13.039Z,1.00
2019-04-21T08:46:36.809Z,1.00
2019-04-21T08:47:12.594Z,1.00
2019-04-21T08:47:47.702Z,1.00
2019-04-21T08:48:24.801Z,1.00
2019-04-21T08:48:58.971Z,1.00
2019-04-21T08:49:34.917Z,1.00
2019-04-21T08:50:08.482Z,1.00
2019-04-21T08:50:44.684Z,1.00
2019-04-21T08:51:27.715Z,1.00
2019-04-21T08:52:08.227Z,1.00
2019-04-21T08:53:09.501Z,1.00
2019-04-21T08:53:49.297Z,1.00
2019-04-21T08:54:23.593Z,1.00
2019-04-21T08:55:03.752Z,1.00
2019-04-21T08:56:04.418Z,1.00
2019-04-21T08:56:54.691Z,1.00
2019-04-21T08:57:54.652Z,1.00
2019-04-21T08:58:34.117Z,1.00
2019-04-21T08:59:47.139Z,1.00
2019-04-21T09:00:26.280Z,1.00
2019-04-21T09:01:18.096Z,1.00
2019-04-21T09:01:59.729Z,1.00
2019-04-21T09:02:57.613Z,1.00
2019-04-21T09:03:52.051Z,1.00
2019-04-21T09:04:24.036Z,1.00
2019-04-21T09:05:02.487Z,1.00
2019-04-21T09:05:36.548Z,1.00
2019-04-21T09:06:16.982Z,1.00
2019-04-21T09:08:03.855Z,1.00
2019-04-21T09:08:44.496Z,1.00
2019-04-21T09:09:19.963Z,1.00
2019-04-21T09:09:46.790Z,1.00